Estación municipal de Cànoves i Samalús (Vallès Oriental, P.N.del Montseny)

Consulta los datos en tiempo real de la estación municipal de Cànoves i Samalús





Hora UTC 21:45
Temperatura 11.4 ºC
Humedad 87.1 %
Presión 1014.7 hPa
Pluja 0.0 mm
Velocidad viento 3.4 km/h
Dirección viento N
Radiación solar 0.1 W/m²

Webcam

Datos diarios 2026-05-08



Hora UTC (invierno +1h; verano +2h)
Temperatura (ºC) Humedad (%) Presión (hPa) Velocidad viento (km/h) Precipitación (mm) Radiación solar (W/m²)
Hora UTC Aire Humedad Presión Vel. Dir. Vel. Max Dir. Intent. máx 5 min. Rad. Sol.
00:05 11.1 77.3 1012.2 2.4 NW 2.4 WNW 0.0 0.1
00:10 11.0 77.9 1012.1 3.9 NW 6.0 NW 0.0 0.1
00:15 11.0 77.2 1012.1 4.3 NW 9.5 NNW 0.0 0.1
00:20 11.2 77.2 1012.1 3.4 N 5.3 NNW 0.0 0.1
00:25 11.4 77.8 1012.0 3.3 N 7.1 N 0.0 0.1
00:30 11.3 77.1 1012.0 2.1 NNW 3.9 NW 0.0 0.1
00:35 11.2 77.2 1012.0 0.0 NW 1.1 NW 0.0 0.1
00:40 11.1 77.6 1012.0 0.0 NNE 0.0 NNW 0.0 0.1
00:45 11.0 78.6 1012.0 0.5 W 3.2 NW 0.0 0.1
00:50 11.1 79.2 1012.0 2.2 W 6.0 NW 0.0 0.1
00:55 11.2 79.8 1011.9 3.8 NW 6.0 NW 0.0 0.1
01:00 11.3 79.6 1011.8 4.6 NW 8.1 NNW 0.0 0.1
01:05 11.6 78.4 1011.7 4.0 NW 10.9 NNE 0.0 0.1
01:10 11.7 77.6 1011.7 3.9 NW 6.7 NW 0.0 0.1
01:15 11.9 77.2 1011.6 3.8 NNW 7.8 N 0.0 0.1
01:20 11.9 77.1 1011.6 2.7 NW 4.6 NW 0.0 0.1
01:25 11.8 77.0 1011.5 4.1 NW 7.1 NNW 0.0 0.1
01:30 11.8 77.0 1011.5 2.7 NW 4.9 NNW 0.0 0.1
01:35 11.8 78.2 1011.5 2.1 S 6.0 S 0.0 0.1
01:40 11.7 79.0 1011.5 0.0 SSW 1.1 SSW 0.0 0.1
01:45 11.6 80.5 1011.4 0.0 NNE 0.0 SSW 0.0 0.1
01:50 11.3 80.9 1011.4 1.2 W 2.8 W 0.0 0.1
01:55 11.2 81.5 1011.4 0.1 SW 1.8 SW 0.0 0.1
02:00 11.1 82.1 1011.4 0.0 NNE 0.0 WSW 0.0 0.1
02:05 11.0 82.3 1011.3 0.0 NNE 0.0 W 0.0 0.1
02:10 10.9 83.1 1011.3 1.9 SSE 3.9 SE 0.0 0.1
02:15 10.7 83.6 1011.3 1.8 S 3.5 S 0.0 0.1
02:20 10.6 84.3 1011.3 0.3 WSW 2.8 NW 0.0 0.1
02:25 10.7 85.3 1011.3 2.5 NW 4.6 NNW 0.0 0.1
02:30 10.6 85.2 1011.2 2.7 NW 6.4 WNW 0.0 0.1
02:35 10.6 85.0 1011.1 2.4 WNW 4.9 WNW 0.0 0.1
02:40 10.5 84.5 1011.1 2.6 WNW 4.6 WNW 0.0 0.1
02:45 10.3 84.3 1011.1 2.0 SW 3.2 SSW 0.0 0.1
02:50 10.2 83.9 1011.1 0.4 SW 2.5 SSW 0.0 0.1
02:55 10.1 83.4 1011.1 0.2 WSW 1.4 WSW 0.0 0.1
03:00 10.0 83.8 1011.0 0.7 WSW 2.5 WSW 0.0 0.1
03:05 10.0 84.1 1011.1 0.1 WNW 1.8 WSW 0.0 0.1
03:10 9.9 83.7 1011.1 0.5 NW 1.8 NW 0.0 0.1
03:15 9.8 83.3 1011.0 2.9 NW 7.1 NW 0.0 0.1
03:20 9.7 82.4 1011.0 3.4 NNW 8.8 NNW 0.0 0.1
03:25 9.9 82.2 1010.9 0.6 NNW 2.5 NNW 0.0 0.1
03:30 9.6 81.6 1011.0 2.2 SSE 4.9 SSE 0.0 0.1
03:35 9.3 82.6 1011.0 1.3 S 4.2 S 0.0 0.1
03:40 9.2 83.4 1011.1 1.7 N 3.5 N 0.0 0.1
03:45 9.1 84.0 1011.1 3.1 SW 7.4 SSW 0.0 0.1
03:50 9.2 85.0 1011.2 1.7 NNW 3.5 NNW 0.0 0.1
03:55 9.1 84.3 1011.1 1.0 NNW 3.9 NNE 0.0 0.1
04:00 8.9 84.1 1011.1 1.2 NW 3.2 NW 0.0 0.1
04:05 8.8 84.7 1011.1 0.7 NNW 2.8 N 0.0 0.1
04:10 8.6 84.3 1011.2 0.3 WNW 2.5 WNW 0.0 0.1
04:15 8.3 84.3 1011.1 1.5 NNW 5.3 NE 0.0 0.2
04:20 8.3 84.4 1011.2 2.9 NNW 6.7 NNE 0.0 0.3
04:25 8.4 83.1 1011.2 3.4 NNW 6.7 NNW 0.0 0.7
04:30 8.5 81.8 1011.2 4.9 NNW 8.8 NW 0.0 1.4
04:35 8.8 80.5 1011.3 3.3 NNW 6.7 NW 0.0 2.3
04:40 8.9 79.7 1011.4 3.1 N 7.1 N 0.0 3.6
04:45 9.0 79.2 1011.3 2.9 NNW 7.1 NNW 0.0 5.1
04:50 9.0 78.7 1011.4 2.9 NW 4.6 NW 0.0 7.5
04:55 8.9 79.0 1011.4 2.0 NNW 4.6 NNE 0.0 13.7
05:00 9.0 79.9 1011.5 2.9 NNW 5.3 N 0.0 17.3
05:05 9.0 79.1 1011.5 4.4 NW 7.1 WNW 0.0 20.0
05:10 9.2 78.4 1011.5 4.2 NW 7.1 NNW 0.0 24.1
05:15 9.4 77.4 1011.6 4.8 NNW 8.5 NW 0.0 28.7
05:20 9.7 77.4 1011.6 3.1 NNW 6.0 NNE 0.0 33.9
05:25 9.8 76.7 1011.6 2.1 NW 4.2 N 0.0 41.1
05:30 10.0 77.8 1011.7 3.1 NNW 4.6 NNW 0.0 47.4
05:35 10.2 78.0 1011.8 2.8 NNW 4.6 NNW 0.0 53.2
05:40 10.3 76.2 1011.8 3.7 NNW 6.7 NW 0.0 61.5
05:45 10.6 75.8 1011.9 3.3 NNW 6.4 NNE 0.0 59.6
05:50 10.8 75.2 1012.0 3.2 NNW 6.0 NNW 0.0 64.3
05:55 11.0 75.8 1012.1 3.1 NNW 4.6 NNW 0.0 67.7
06:00 11.3 75.2 1012.1 4.6 N 6.7 N 0.0 75.7
06:05 11.6 73.7 1012.1 4.3 NNW 6.4 N 0.0 85.8
06:10 11.9 75.4 1012.1 3.3 NNW 5.3 NNW 0.0 100.1
06:15 12.1 75.0 1012.1 2.1 N 4.6 NNE 0.0 116.6
06:20 12.3 73.2 1012.2 2.5 N 4.9 NNW 0.0 139.9
06:25 12.6 70.3 1012.2 2.1 NNW 4.6 NNW 0.0 162.6
06:30 12.9 68.7 1012.2 2.8 N 6.0 N 0.0 171.6
06:35 13.3 68.6 1012.3 1.4 NNE 5.6 NNE 0.0 185.2
06:40 13.7 69.4 1012.4 2.2 E 4.9 E 0.0 200.5
06:45 14.0 70.4 1012.4 1.9 ESE 3.9 ESE 0.0 199.9
06:50 14.2 71.0 1012.4 0.0 NNE 0.0 SE 0.0 207.1
06:55 14.5 68.8 1012.3 0.8 N 3.2 NNE 0.0 220.7
07:00 14.8 64.2 1012.4 0.9 NE 3.2 E 0.0 320.4
07:05 15.2 63.7 1012.4 0.4 ENE 3.2 E 0.0 309.7
07:10 15.4 64.6 1012.3 0.0 NNE 0.0 N 0.0 363.4
07:15 15.6 64.3 1012.3 1.6 ESE 4.6 ESE 0.0 389.1
07:20 15.9 64.4 1012.4 3.9 SE 9.2 SE 0.0 432.1
07:25 16.2 61.8 1012.4 4.5 ESE 7.1 ESE 0.0 444.4
07:30 16.3 59.5 1012.5 4.1 SE 7.8 E 0.0 383.7
07:35 16.4 63.1 1012.6 6.6 SE 9.9 ESE 0.0 402.6
07:40 16.4 62.1 1012.6 6.6 SE 10.6 ESE 0.0 428.9
07:45 16.4 61.1 1012.7 6.1 SE 11.6 SSE 0.0 508.2
07:50 16.4 62.0 1012.7 6.5 SE 10.9 SE 0.0 463.3
07:55 16.4 63.4 1012.8 5.5 SE 10.2 SE 0.0 470.9
08:00 16.5 63.6 1012.8 5.1 SE 9.2 ESE 0.0 438.3
08:05 16.7 62.5 1012.8 2.8 ESE 5.6 ESE 0.0 419.2
08:10 16.9 60.3 1012.8 2.9 ESE 7.1 ENE 0.0 433.5
08:15 17.0 62.5 1012.9 5.0 SSE 12.7 SSE 0.0 481.7
08:20 16.9 61.8 1012.9 4.7 ESE 9.5 ESE 0.0 463.8
08:25 17.1 61.5 1013.0 4.7 SSE 9.9 ESE 0.0 494.1
08:30 17.0 60.6 1013.0 4.4 S 8.5 S 0.0 556.4
08:35 17.4 61.8 1013.1 4.4 ESE 10.9 ESE 0.0 509.5
08:40 17.5 61.3 1013.1 6.0 SSE 9.5 ESE 0.0 340.8
08:45 17.1 60.8 1013.2 3.4 SSE 8.5 S 0.0 282.2
08:50 17.1 61.0 1013.3 2.7 SSW 7.1 SSE 0.0 284.2
08:55 17.2 64.6 1013.4 4.3 SSE 10.2 SW 0.0 294.2
09:00 17.1 63.1 1013.5 3.2 S 5.6 S 0.0 278.1
09:05 17.1 65.3 1013.6 7.1 SE 10.9 ESE 0.0 274.1
09:10 17.0 67.5 1013.6 6.0 SSE 10.6 SE 0.0 275.3
09:15 17.0 69.0 1013.6 4.9 S 10.9 S 0.0 304.9
09:20 17.0 71.2 1013.6 4.3 S 9.9 S 0.0 361.5
09:25 17.0 73.4 1013.6 6.9 SSE 13.1 S 0.0 332.3
09:30 16.9 74.6 1013.7 7.7 SSE 11.3 SSE 0.0 316.5
09:35 16.8 74.5 1013.8 5.3 S 9.9 SSW 0.0 274.2
09:40 16.9 74.7 1013.9 4.7 S 10.6 SSE 0.0 258.3
09:45 16.8 73.6 1013.9 5.5 SSE 10.9 S 0.0 309.9
09:50 16.9 73.4 1013.9 6.2 S 11.3 S 0.0 368.0
09:55 17.3 73.5 1013.9 2.9 S 8.1 SE 0.0 331.8
10:00 17.2 71.2 1013.8 6.3 SE 12.0 ESE 0.0 272.8
10:05 17.1 71.0 1013.7 3.6 SE 8.1 SE 0.0 303.7
10:10 17.3 70.5 1013.7 4.4 S 9.5 SSW 0.0 398.1
10:15 17.3 71.2 1013.7 6.6 S 9.2 S 0.0 618.5
10:20 17.4 70.9 1013.8 4.3 SSW 12.4 SSW 0.0 532.3
10:25 17.5 70.3 1013.7 9.3 SSE 18.4 S 0.0 360.9
10:30 17.4 68.9 1013.8 4.0 S 10.2 SW 0.0 337.1
10:35 17.6 66.9 1013.6 8.3 SE 18.4 SE 0.0 295.8
10:40 17.3 66.7 1013.6 6.5 SE 12.7 SE 0.0 262.0
10:45 17.3 67.8 1013.6 5.0 SSE 11.3 SSE 0.0 287.4
10:50 17.3 68.4 1013.6 5.6 SE 12.0 SSE 0.0 355.6
10:55 17.4 68.4 1013.5 7.0 SE 10.2 ESE 0.0 373.9
11:00 17.4 69.8 1013.4 6.7 SSE 11.3 SSE 0.0 334.0
11:05 17.3 70.9 1013.3 5.8 SSE 17.6 SE 0.0 352.4
11:10 17.3 70.6 1013.2 7.4 ESE 11.6 SE 0.0 387.6
11:15 17.7 69.2 1013.3 3.9 SSW 7.4 ESE 0.0 427.8
11:20 17.8 68.4 1013.3 5.6 S 11.6 SSE 0.0 352.6
11:25 17.7 68.3 1013.3 7.8 SE 13.4 SE 0.0 444.2
11:30 17.7 68.1 1013.4 6.7 SSE 12.0 SE 0.0 417.5
11:35 17.7 67.1 1013.3 4.9 SSW 9.9 SSE 0.0 389.9
11:40 17.8 67.6 1013.3 4.1 SE 9.9 S 0.0 317.2
11:45 17.8 68.5 1013.3 8.1 SSE 15.9 ESE 0.0 302.8
11:50 17.6 68.6 1013.4 3.5 S 7.1 S 0.0 327.6
11:55 17.7 68.6 1013.3 7.8 SSE 15.2 SE 0.0 343.5
12:00 17.7 67.4 1013.4 7.6 SSE 13.8 SE 0.0 364.5
12:05 17.8 67.9 1013.3 8.2 SE 14.8 SSE 0.0 430.2
12:10 17.7 68.4 1013.3 10.4 SSE 19.1 ESE 0.0 390.6
12:15 17.4 68.8 1013.3 10.8 SE 16.6 SE 0.0 341.8
12:20 17.3 69.2 1013.4 9.5 SE 18.7 SE 0.0 373.2
12:25 17.4 69.4 1013.5 10.1 SSE 15.9 SSE 0.0 676.3
12:30 18.2 69.5 1013.6 9.4 SE 17.3 ESE 0.0 1032.0
12:35 18.7 65.7 1013.5 9.8 S 18.0 SSE 0.0 1043.0
12:40 18.6 66.3 1013.5 8.0 SSE 16.2 SSE 0.0 544.6
12:45 18.6 66.7 1013.5 7.4 SE 14.1 SE 0.0 591.1
12:50 18.4 64.6 1013.5 9.9 S 23.6 SSW 0.0 509.5
12:55 18.1 66.0 1013.5 7.6 S 13.4 S 0.0 353.7
13:00 18.0 67.2 1013.5 8.3 S 15.5 SW 0.0 268.4
13:05 17.9 67.2 1013.5 7.9 SSE 16.6 ESE 0.0 240.1
13:10 17.7 66.8 1013.5 8.6 SSE 19.1 SE 0.0 342.0
13:15 17.7 66.6 1013.5 5.0 SW 11.6 S 0.0 467.1
13:20 18.3 67.0 1013.5 6.3 S 14.8 SSW 0.0 821.0
13:25 18.8 65.3 1013.5 9.1 S 16.6 SE 0.0 639.5
13:30 18.7 65.2 1013.5 10.1 SSE 15.9 S 0.0 444.6
13:35 18.4 66.0 1013.5 8.2 SE 13.4 SE 0.0 439.4
13:40 18.5 65.7 1013.5 5.3 S 10.2 WSW 0.0 417.6
13:45 18.6 65.9 1013.5 6.6 SE 11.3 SSE 0.0 394.0
13:50 18.4 65.8 1013.4 5.6 S 13.8 SE 0.0 458.9
13:55 18.4 66.0 1013.4 7.7 ESE 15.5 ESE 0.0 413.4
14:00 18.4 67.3 1013.3 8.9 ESE 13.8 ESE 0.0 409.1
14:05 18.4 67.7 1013.2 4.8 ESE 10.9 ESE 0.0 362.8
14:10 18.5 65.7 1013.2 5.3 ESE 13.4 SE 0.0 363.0
14:15 18.3 66.8 1013.1 8.0 SE 12.0 SE 0.0 408.7
14:20 18.3 64.6 1013.0 0.7 ENE 2.8 ESE 0.0 479.4
14:25 19.0 64.2 1012.8 4.0 SSE 11.6 SE 0.0 455.7
14:30 18.7 63.2 1012.7 5.3 S 8.8 SE 0.0 324.3
14:35 18.5 64.4 1012.6 7.8 SE 15.9 SE 0.0 285.8
14:40 18.3 65.4 1012.6 7.2 SE 12.0 SSE 0.0 298.0
14:45 18.3 66.1 1012.5 9.4 SE 14.8 SE 0.0 339.0
14:50 18.3 65.6 1012.5 9.7 SSE 15.9 SE 0.0 412.6
14:55 18.2 65.1 1012.5 8.9 SE 14.1 SE 0.0 369.8
15:00 18.4 65.1 1012.5 7.8 ESE 13.8 SSE 0.0 571.2
15:05 18.8 66.5 1012.6 9.6 SSE 14.8 SE 0.0 719.9
15:10 18.8 66.4 1012.4 11.1 SE 17.6 SE 0.0 371.6
15:15 18.4 67.6 1012.5 10.5 SSE 17.6 SE 0.0 280.0
15:20 18.1 68.3 1012.6 9.0 S 16.9 S 0.0 307.3
15:25 18.2 69.1 1012.7 9.4 SSE 19.1 SSE 0.0 320.6
15:30 18.1 69.1 1012.8 8.2 SSE 18.4 SSE 0.0 268.5
15:35 18.0 70.1 1012.7 10.0 S 20.5 SSE 0.0 259.3
15:40 17.7 70.9 1012.7 9.8 S 19.4 S 0.0 214.6
15:45 17.4 71.2 1012.9 9.6 SSE 20.5 SSW 0.0 228.6
15:50 17.3 71.7 1012.8 11.3 SSE 18.7 SE 0.0 259.8
15:55 17.3 72.8 1012.9 8.2 SE 15.2 SE 0.0 276.1
16:00 17.4 70.8 1012.9 11.2 SE 24.0 SE 0.0 533.4
16:05 17.7 69.5 1012.9 11.1 SE 17.6 ESE 0.0 532.3
16:10 17.7 69.8 1012.8 8.6 SSE 14.8 S 0.0 413.6
16:15 17.8 70.5 1012.8 6.9 SE 13.8 SE 0.0 420.9
16:20 17.7 69.0 1012.7 8.9 SE 19.4 ESE 0.0 279.7
16:25 17.5 68.9 1012.7 9.5 SE 15.5 ESE 0.0 146.0
16:30 17.1 69.2 1012.7 6.0 SSE 12.0 S 0.0 99.8
16:35 16.8 70.2 1012.7 10.1 SE 15.2 SE 0.0 105.1
16:40 16.6 71.1 1012.7 7.2 SSE 12.7 SSE 0.0 200.0
16:45 16.7 71.2 1012.8 5.8 SSE 9.2 SSE 0.0 195.0
16:50 16.8 71.1 1012.8 5.2 S 10.9 SSE 0.0 173.7
16:55 16.7 71.4 1012.8 6.9 SE 11.6 S 0.0 111.2
17:00 16.5 71.9 1012.7 6.2 SE 9.9 SE 0.0 101.4
17:05 16.4 72.3 1012.8 6.4 SSE 11.6 S 0.0 87.1
17:10 16.3 73.4 1012.8 6.6 SSE 10.9 S 0.0 76.3
17:15 16.1 74.6 1012.8 7.0 SSE 11.3 SSE 0.0 56.4
17:20 15.9 75.2 1012.9 5.1 SSE 9.5 SSE 0.0 51.1
17:25 15.9 76.0 1013.0 5.8 SSE 12.4 SSE 0.0 60.5
17:30 15.8 76.5 1013.0 5.8 SSE 10.6 SSE 0.0 41.6
17:35 15.8 76.6 1013.1 6.3 S 10.9 SSW 0.0 39.6
17:40 15.8 77.6 1013.1 3.9 S 6.4 SSE 0.0 32.1
17:45 15.7 77.7 1013.1 3.8 S 7.8 SSW 0.0 29.1
17:50 15.6 78.0 1013.1 4.1 S 7.8 SSE 0.0 23.4
17:55 15.5 78.3 1013.2 2.9 S 6.0 SSW 0.0 23.8
18:00 15.4 78.9 1013.2 3.3 S 5.6 S 0.0 21.8
18:05 15.3 79.1 1013.3 2.4 SSW 7.8 SW 0.0 24.6
18:10 15.2 79.4 1013.4 4.3 SSW 7.8 SSW 0.0 26.7
18:15 15.1 79.9 1013.4 2.2 SW 4.9 SSW 0.0 21.3
18:20 15.0 80.2 1013.4 1.4 SW 3.9 SW 0.0 18.7
18:25 14.9 80.4 1013.4 1.5 WNW 3.5 NW 0.0 15.9
18:30 14.8 80.8 1013.5 2.3 WNW 3.2 WNW 0.0 13.9
18:35 14.7 81.4 1013.5 2.2 NW 3.2 NNW 0.0 11.2
18:40 14.5 81.8 1013.5 1.8 NW 2.5 NW 0.0 9.5
18:45 14.2 82.4 1013.6 1.9 NW 3.2 NW 0.0 7.4
18:50 13.9 83.0 1013.7 2.4 NW 3.2 NW 0.0 5.0
18:55 13.7 83.8 1013.7 2.8 NW 3.9 NW 0.0 3.4
19:00 13.6 84.9 1013.7 3.3 NNW 4.9 NNW 0.0 2.1
19:05 13.5 85.7 1013.7 3.6 NNW 5.3 NNW 0.0 1.2
19:10 13.3 86.0 1013.7 2.8 NNW 4.9 NNW 0.0 0.6
19:15 13.2 86.5 1013.7 3.0 NNW 4.6 NNW 0.0 0.3
19:20 13.0 86.5 1013.7 2.8 NNW 4.9 NNW 0.0 0.1
19:25 12.8 86.9 1013.8 2.2 NNW 5.3 N 0.0 0.1
19:30 12.6 87.3 1013.8 2.2 NW 3.9 NW 0.0 0.1
19:35 12.5 87.4 1013.9 0.5 NW 2.5 NW 0.0 0.1
19:40 12.2 87.2 1013.9 0.2 NE 3.5 NNE 0.0 0.1
19:45 12.2 88.3 1014.0 3.9 NNW 10.2 NNW 0.0 0.1
19:50 12.4 88.7 1014.0 3.1 N 8.1 NNE 0.0 0.1
19:55 12.4 88.1 1014.0 4.3 N 9.5 NNW 0.0 0.1
20:00 12.4 87.7 1014.0 3.6 N 8.1 NNE 0.0 0.1
20:05 12.3 87.1 1014.1 2.6 NNW 8.8 NNW 0.0 0.1
20:10 12.2 86.8 1014.2 2.1 N 6.0 N 0.0 0.1
20:15 12.2 86.9 1014.1 1.5 NNW 4.2 N 0.0 0.1
20:20 12.0 86.7 1014.1 2.9 NW 9.2 NW 0.0 0.1
20:25 11.8 86.7 1014.2 0.6 NNW 3.2 WNW 0.0 0.1
20:30 11.7 86.9 1014.3 0.6 NW 3.5 NW 0.0 0.1
20:35 11.6 87.1 1014.3 1.4 NW 7.4 NW 0.0 0.1
20:40 11.5 87.4 1014.4 2.4 NNW 4.6 NNW 0.0 0.1
20:45 11.6 87.8 1014.5 3.5 NNW 8.1 NNE 0.0 0.1
20:50 11.6 87.0 1014.5 2.3 NNW 5.6 NNE 0.0 0.1
20:55 11.6 86.7 1014.6 1.9 NNW 6.4 WNW 0.0 0.1
21:00 11.6 86.8 1014.6 2.6 N 5.6 NNW 0.0 0.1
21:05 11.7 86.4 1014.6 3.1 NNW 5.6 NNW 0.0 0.1
21:10 11.7 86.3 1014.6 3.7 NNW 7.4 NNE 0.0 0.1
21:15 11.7 86.0 1014.6 3.6 NNW 7.1 NNE 0.0 0.1
21:20 11.6 86.0 1014.6 2.3 NNW 5.3 N 0.0 0.1
21:25 11.6 86.3 1014.6 1.8 N 5.3 NNE 0.0 0.1
21:30 11.6 86.4 1014.6 2.3 N 5.3 N 0.0 0.1
21:35 11.5 86.5 1014.7 2.7 NNW 5.3 N 0.0 0.1
21:40 11.4 86.7 1014.7 3.2 NNW 5.6 NNW 0.0 0.1
21:45 11.4 87.1 1014.7 3.4 N 6.0 NNW 0.0 0.1
Máxima 19.0 88.7 1014.7 11.3 SSE 24.0 SE 0.0 1043.0
Mínima 8.3 59.5 1010.9
Total 0.0